createdAt,value
2018-09-22T00:00:34.822Z,16.37
2018-09-22T00:03:04.215Z,16.35
2018-09-22T00:05:33.866Z,16.36
2018-09-22T00:08:03.504Z,16.43
2018-09-22T00:10:33.000Z,16.37
2018-09-22T00:13:02.927Z,16.35
2018-09-22T00:15:32.400Z,16.38
2018-09-22T00:18:01.917Z,16.26
2018-09-22T00:20:31.697Z,16.33
2018-09-22T00:23:01.111Z,16.22
2018-09-22T00:25:30.833Z,16.25
2018-09-22T00:28:00.874Z,16.22
2018-09-22T00:30:30.470Z,16.09
2018-09-22T00:33:00.403Z,16.13
2018-09-22T00:35:30.223Z,16.08
2018-09-22T00:37:59.901Z,16.10
2018-09-22T00:40:29.292Z,16.15
2018-09-22T00:42:59.505Z,15.96
2018-09-22T00:45:29.569Z,15.94
2018-09-22T00:47:59.129Z,15.94
2018-09-22T00:50:29.098Z,15.95
2018-09-22T00:52:58.344Z,16.02
2018-09-22T00:55:28.100Z,15.95
2018-09-22T00:57:57.821Z,16.02
2018-09-22T01:00:27.255Z,15.96
2018-09-22T01:02:56.801Z,15.99
2018-09-22T01:05:27.014Z,15.95
2018-09-22T01:07:56.426Z,15.77
2018-09-22T01:10:25.860Z,15.77
2018-09-22T01:12:55.369Z,15.68
2018-09-22T01:15:25.066Z,15.80
2018-09-22T01:17:54.755Z,15.76
2018-09-22T01:20:24.227Z,15.76
2018-09-22T01:22:54.306Z,15.77
2018-09-22T01:25:24.012Z,15.73
2018-09-22T01:27:54.034Z,15.72
2018-09-22T01:30:23.802Z,15.62
2018-09-22T01:32:53.357Z,15.58
2018-09-22T01:35:23.594Z,15.64
2018-09-22T01:37:53.109Z,15.73
2018-09-22T01:40:22.426Z,15.55
2018-09-22T01:42:52.329Z,15.51
2018-09-22T01:45:22.535Z,15.50
2018-09-22T01:47:52.309Z,15.54
2018-09-22T01:50:22.409Z,15.44
2018-09-22T01:52:51.955Z,15.40
2018-09-22T01:55:21.344Z,15.39
2018-09-22T01:57:50.873Z,15.31
2018-09-22T02:00:20.145Z,15.25
2018-09-22T02:02:49.865Z,15.23
2018-09-22T02:05:19.153Z,15.20
2018-09-22T02:07:48.621Z,15.14
2018-09-22T02:10:17.862Z,15.21
2018-09-22T02:12:47.468Z,15.23
2018-09-22T02:15:16.824Z,15.14
2018-09-22T02:17:46.292Z,15.05
2018-09-22T02:20:16.322Z,15.06
2018-09-22T02:22:46.114Z,14.96
2018-09-22T02:25:15.929Z,14.88
2018-09-22T02:27:45.357Z,14.93
2018-09-22T02:30:14.739Z,14.82
2018-09-22T02:32:44.442Z,14.76
2018-09-22T02:35:14.282Z,14.72
2018-09-22T02:37:44.182Z,14.68
2018-09-22T02:40:14.037Z,14.53
2018-09-22T02:42:43.624Z,14.41
2018-09-22T02:45:13.590Z,14.42
2018-09-22T02:47:43.211Z,14.44
2018-09-22T02:50:13.161Z,14.34
2018-09-22T02:52:42.749Z,14.42
2018-09-22T02:55:12.365Z,14.54
2018-09-22T02:57:42.202Z,14.51
2018-09-22T03:00:11.454Z,14.25
2018-09-22T03:02:41.082Z,14.14
2018-09-22T03:05:10.690Z,14.02
2018-09-22T03:07:40.094Z,14.03
2018-09-22T03:10:09.189Z,14.15
2018-09-22T03:12:39.020Z,14.09
2018-09-22T03:15:08.832Z,14.03
2018-09-22T03:17:37.923Z,14.13
2018-09-22T03:20:07.938Z,14.04
2018-09-22T03:22:37.437Z,13.85
2018-09-22T03:25:07.035Z,13.98
2018-09-22T03:27:36.869Z,13.97
2018-09-22T03:30:06.594Z,13.86
2018-09-22T03:32:35.986Z,13.89
2018-09-22T03:35:05.653Z,13.79
2018-09-22T03:37:34.968Z,13.71
2018-09-22T03:40:04.690Z,13.78
2018-09-22T03:42:34.342Z,13.86
2018-09-22T03:45:03.967Z,13.83
2018-09-22T03:47:33.385Z,13.98
2018-09-22T03:50:03.217Z,13.97
2018-09-22T03:52:32.550Z,13.90
2018-09-22T03:55:02.303Z,13.91
2018-09-22T03:57:32.300Z,13.83
2018-09-22T04:00:01.978Z,13.88
2018-09-22T04:02:31.586Z,13.91
2018-09-22T04:05:01.353Z,13.93
2018-09-22T04:07:30.767Z,13.77
2018-09-22T04:10:00.147Z,13.79
2018-09-22T04:12:30.324Z,13.84
2018-09-22T04:14:59.603Z,13.89
2018-09-22T04:17:29.532Z,13.84
2018-09-22T04:19:59.466Z,13.76
2018-09-22T04:22:29.393Z,13.75
2018-09-22T04:24:58.913Z,13.81
2018-09-22T04:27:28.909Z,13.86
2018-09-22T04:29:58.400Z,13.89
2018-09-22T04:32:28.110Z,13.81
2018-09-22T04:34:57.971Z,13.85
2018-09-22T04:37:27.551Z,13.89
2018-09-22T04:39:57.044Z,13.95
2018-09-22T04:42:26.646Z,13.96
2018-09-22T04:44:56.462Z,13.90
2018-09-22T04:47:26.072Z,14.02
2018-09-22T04:49:55.449Z,14.01
2018-09-22T04:52:25.113Z,13.96
2018-09-22T04:54:55.278Z,14.01
2018-09-22T04:57:24.716Z,14.00
2018-09-22T04:59:54.293Z,14.04
2018-09-22T05:02:24.163Z,13.96
2018-09-22T05:04:53.488Z,13.97
2018-09-22T05:07:23.337Z,13.93
2018-09-22T05:09:53.243Z,13.97
2018-09-22T05:12:22.977Z,14.00
2018-09-22T05:14:52.974Z,14.17
2018-09-22T05:17:22.767Z,14.08
2018-09-22T05:19:52.573Z,13.99
2018-09-22T05:22:22.033Z,14.10
2018-09-22T05:24:51.663Z,14.27
2018-09-22T05:27:21.028Z,14.35
2018-09-22T05:29:50.615Z,14.31
2018-09-22T05:32:20.530Z,14.39
2018-09-22T05:34:50.137Z,14.43
2018-09-22T05:37:19.874Z,14.48
2018-09-22T05:39:49.821Z,14.55
2018-09-22T05:42:19.414Z,14.58
2018-09-22T05:44:48.941Z,14.67
2018-09-22T05:47:18.834Z,14.64
2018-09-22T05:49:48.307Z,14.79
2018-09-22T05:52:17.683Z,14.93
2018-09-22T05:54:47.246Z,14.84
2018-09-22T05:57:16.706Z,15.02
2018-09-22T05:59:46.462Z,15.17
2018-09-22T06:02:16.307Z,15.37
2018-09-22T06:04:45.773Z,15.42
2018-09-22T06:07:15.277Z,15.58
2018-09-22T06:09:45.442Z,15.61
2018-09-22T06:12:15.286Z,15.63
2018-09-22T06:14:44.858Z,15.62
2018-09-22T06:17:14.849Z,15.78
2018-09-22T06:19:44.590Z,15.88
2018-09-22T06:22:14.324Z,15.89
2018-09-22T06:24:44.232Z,15.89
2018-09-22T06:27:14.060Z,16.07
2018-09-22T06:29:43.574Z,16.23
2018-09-22T06:32:13.024Z,16.33
2018-09-22T06:34:42.611Z,16.47
2018-09-22T06:37:12.318Z,16.70
2018-09-22T06:39:42.196Z,16.74
2018-09-22T06:42:11.631Z,16.81
2018-09-22T06:44:41.034Z,16.98
2018-09-22T06:47:10.725Z,16.99
2018-09-22T06:49:40.359Z,17.25
2018-09-22T06:52:10.495Z,17.32
2018-09-22T06:54:39.982Z,17.16
2018-09-22T06:57:09.286Z,17.07
2018-09-22T06:59:39.219Z,17.18
2018-09-22T07:02:08.894Z,17.21
2018-09-22T07:04:39.043Z,17.14
2018-09-22T07:07:09.720Z,17.31
2018-09-22T07:09:39.285Z,17.38
2018-09-22T07:12:08.784Z,17.51
2018-09-22T07:14:38.702Z,17.65
2018-09-22T07:17:08.273Z,17.91
2018-09-22T07:19:37.676Z,18.00
2018-09-22T07:22:12.547Z,18.23
2018-09-22T07:24:42.107Z,18.20
2018-09-22T07:27:11.713Z,18.08
2018-09-22T07:29:41.386Z,18.36
2018-09-22T07:32:10.956Z,18.12
2018-09-22T07:34:40.820Z,18.16
2018-09-22T07:37:10.821Z,18.23
2018-09-22T07:39:40.816Z,18.32
2018-09-22T07:42:10.373Z,18.47
2018-09-22T07:44:40.231Z,18.44
2018-09-22T07:47:09.874Z,18.72
2018-09-22T07:49:39.398Z,18.61
2018-09-22T07:52:09.009Z,18.66
2018-09-22T07:54:38.614Z,18.88
2018-09-22T07:57:08.101Z,18.86
2018-09-22T07:59:37.698Z,19.17
2018-09-22T08:02:07.291Z,19.17
2018-09-22T08:04:36.632Z,19.25
2018-09-22T08:07:06.432Z,19.30
2018-09-22T08:09:38.698Z,19.33
2018-09-22T08:12:08.641Z,19.51
2018-09-22T08:14:38.378Z,19.87
2018-09-22T08:17:08.214Z,19.88
2018-09-22T08:19:38.733Z,19.83
2018-09-22T08:22:09.177Z,20.26
2018-09-22T08:24:39.413Z,20.07
2018-09-22T08:27:09.375Z,20.18
2018-09-22T08:29:38.927Z,20.36
2018-09-22T08:32:09.373Z,20.64
2018-09-22T08:34:39.132Z,20.81
2018-09-22T08:37:09.148Z,20.80
2018-09-22T08:39:38.789Z,20.82
2018-09-22T08:42:08.955Z,20.67
2018-09-22T08:44:38.739Z,21.04
2018-09-22T08:47:08.134Z,21.18
2018-09-22T08:49:37.597Z,21.30
2018-09-22T08:52:07.442Z,21.30
2018-09-22T08:54:36.952Z,21.42
2018-09-22T08:57:06.514Z,21.47
2018-09-22T08:59:37.286Z,21.56
2018-09-22T09:02:07.103Z,21.76
2018-09-22T09:04:36.513Z,22.02
2018-09-22T09:07:06.226Z,22.28
2018-09-22T09:09:35.675Z,22.54
2018-09-22T09:12:05.164Z,22.44
2018-09-22T09:14:34.791Z,22.43
2018-09-22T09:17:04.383Z,22.88
2018-09-22T09:19:33.885Z,22.84
2018-09-22T09:22:04.183Z,23.06
2018-09-22T09:24:33.430Z,23.00
2018-09-22T09:27:02.994Z,23.19
2018-09-22T09:29:33.193Z,23.54
2018-09-22T09:32:02.542Z,23.37
2018-09-22T09:34:32.195Z,23.33
2018-09-22T09:37:02.145Z,23.75
2018-09-22T09:39:31.608Z,23.88
2018-09-22T09:42:01.169Z,24.32
2018-09-22T09:44:30.901Z,24.36
2018-09-22T09:47:01.083Z,24.64
2018-09-22T09:49:30.907Z,24.64
2018-09-22T09:52:00.849Z,24.89
2018-09-22T09:54:30.355Z,25.17
2018-09-22T09:56:59.651Z,25.21
2018-09-22T09:59:29.223Z,25.22
2018-09-22T10:01:58.526Z,25.46
2018-09-22T10:04:28.175Z,25.19
2018-09-22T10:06:57.582Z,24.97
2018-09-22T10:09:26.943Z,25.00
2018-09-22T10:11:56.585Z,25.27
2018-09-22T10:14:26.719Z,25.68
2018-09-22T10:16:56.130Z,25.79
2018-09-22T10:19:25.789Z,25.82
2018-09-22T10:21:55.431Z,25.70
2018-09-22T10:24:25.003Z,25.67
2018-09-22T10:26:54.561Z,25.65
2018-09-22T10:29:24.373Z,25.88
2018-09-22T10:31:53.955Z,26.27
2018-09-22T10:34:23.851Z,26.70
2018-09-22T10:36:53.680Z,26.56
2018-09-22T10:39:23.188Z,26.52
2018-09-22T10:41:52.663Z,26.59
2018-09-22T10:44:22.552Z,26.50
2018-09-22T10:46:52.148Z,26.73
2018-09-22T10:49:21.749Z,26.78
2018-09-22T10:51:51.950Z,26.76
2018-09-22T10:54:21.425Z,26.65
2018-09-22T10:56:50.820Z,26.78
2018-09-22T10:59:20.906Z,27.25
2018-09-22T11:01:50.654Z,27.52
2018-09-22T11:04:20.157Z,27.54
2018-09-22T11:06:50.111Z,27.35
2018-09-22T11:09:19.361Z,27.62
2018-09-22T11:11:48.683Z,27.80
2018-09-22T11:14:18.555Z,27.96
2018-09-22T11:16:48.308Z,27.69
2018-09-22T11:19:17.582Z,27.94
2018-09-22T11:21:46.957Z,28.40
2018-09-22T11:24:16.414Z,28.90
2018-09-22T11:26:46.045Z,28.82
2018-09-22T11:29:16.274Z,29.19
2018-09-22T11:31:46.082Z,29.62
2018-09-22T11:34:15.786Z,29.59
2018-09-22T11:36:46.108Z,29.49
2018-09-22T11:39:15.500Z,29.52
2018-09-22T11:41:45.136Z,29.27
2018-09-22T11:44:15.161Z,29.66
2018-09-22T11:46:45.558Z,29.83
2018-09-22T11:49:16.075Z,30.21
2018-09-22T11:51:46.369Z,30.00
2018-09-22T11:54:16.065Z,29.87
2018-09-22T11:56:45.950Z,29.77
2018-09-22T11:59:15.752Z,30.21
2018-09-22T12:01:45.808Z,30.62
2018-09-22T12:04:16.037Z,30.69
2018-09-22T12:06:45.578Z,30.79
2018-09-22T12:09:15.292Z,30.97
2018-09-22T12:11:45.542Z,31.15
2018-09-22T12:14:15.253Z,31.18
2018-09-22T12:16:44.879Z,31.41
2018-09-22T12:19:14.415Z,31.62
2018-09-22T12:21:43.776Z,31.57
2018-09-22T12:24:13.323Z,31.71
2018-09-22T12:26:43.292Z,31.33
2018-09-22T12:29:13.013Z,31.79
2018-09-22T12:31:42.450Z,31.86
2018-09-22T12:34:12.000Z,31.75
2018-09-22T12:36:41.494Z,31.91
2018-09-22T12:39:13.208Z,31.84
2018-09-22T12:41:42.675Z,32.15
2018-09-22T12:44:12.602Z,32.30
2018-09-22T12:46:42.063Z,32.57
2018-09-22T12:49:11.637Z,32.60
2018-09-22T12:51:41.123Z,32.63
2018-09-22T12:54:11.206Z,32.62
2018-09-22T12:56:40.896Z,32.59
2018-09-22T12:59:10.639Z,32.67
2018-09-22T13:01:40.703Z,31.95
2018-09-22T13:04:10.287Z,31.95
2018-09-22T13:06:39.703Z,32.24
2018-09-22T13:09:10.610Z,32.27
2018-09-22T13:11:40.381Z,32.33
2018-09-22T13:14:09.861Z,32.31
2018-09-22T13:16:40.018Z,32.44
2018-09-22T13:19:09.775Z,32.32
2018-09-22T13:21:39.270Z,32.46
2018-09-22T13:24:09.539Z,32.78
2018-09-22T13:26:39.069Z,33.06
2018-09-22T13:29:08.904Z,32.48
2018-09-22T13:31:38.674Z,32.33
2018-09-22T13:34:08.378Z,32.27
2018-09-22T13:36:37.858Z,32.51
2018-09-22T13:39:10.739Z,32.34
2018-09-22T13:41:40.574Z,32.65
2018-09-22T13:44:10.377Z,32.25
2018-09-22T13:46:40.715Z,32.00
2018-09-22T13:49:10.311Z,31.90
2018-09-22T13:51:40.024Z,32.52
2018-09-22T13:54:09.681Z,32.95
2018-09-22T13:56:39.114Z,33.17
2018-09-22T13:59:08.743Z,33.78
2018-09-22T14:01:38.603Z,34.10
2018-09-22T14:04:08.077Z,33.73
2018-09-22T14:06:37.793Z,34.17
2018-09-22T14:09:10.297Z,34.89
2018-09-22T14:11:39.576Z,34.73
2018-09-22T14:14:09.462Z,34.15
2018-09-22T14:16:39.445Z,34.29
2018-09-22T14:19:09.112Z,34.83
2018-09-22T14:21:38.710Z,35.36
2018-09-22T14:24:08.534Z,35.20
2018-09-22T14:26:38.034Z,35.10
2018-09-22T14:29:08.007Z,34.94
2018-09-22T14:31:37.614Z,34.85
2018-09-22T14:34:06.995Z,34.31
2018-09-22T14:36:36.457Z,33.69
2018-09-22T14:39:06.905Z,33.18
2018-09-22T14:41:36.247Z,32.35
2018-09-22T14:44:05.576Z,32.04
2018-09-22T14:46:35.309Z,31.12
2018-09-22T14:49:05.030Z,31.14
2018-09-22T14:51:34.341Z,31.42
2018-09-22T14:54:04.342Z,31.42
2018-09-22T14:56:33.610Z,31.84
2018-09-22T14:59:03.034Z,31.97
2018-09-22T15:01:32.604Z,31.76
2018-09-22T15:04:02.088Z,31.38
2018-09-22T15:06:31.574Z,30.96
2018-09-22T15:09:01.042Z,30.67
2018-09-22T15:11:30.878Z,30.59
2018-09-22T15:14:00.589Z,30.59
2018-09-22T15:16:30.660Z,30.73
2018-09-22T15:19:00.330Z,30.59
2018-09-22T15:21:29.800Z,30.04
2018-09-22T15:23:59.959Z,30.20
2018-09-22T15:26:29.650Z,29.95
2018-09-22T15:28:58.966Z,29.83
2018-09-22T15:31:29.023Z,29.94
2018-09-22T15:33:58.701Z,29.82
2018-09-22T15:36:28.096Z,29.84
2018-09-22T15:38:58.014Z,29.58
2018-09-22T15:41:27.466Z,29.25
2018-09-22T15:43:57.116Z,28.99
2018-09-22T15:46:26.855Z,28.58
2018-09-22T15:48:56.643Z,28.11
2018-09-22T15:51:29.237Z,27.99
2018-09-22T15:53:59.394Z,27.61
2018-09-22T15:56:28.840Z,27.48
2018-09-22T15:58:58.341Z,27.70
2018-09-22T16:01:28.281Z,27.63
2018-09-22T16:03:57.891Z,27.43
2018-09-22T16:06:27.492Z,27.29
2018-09-22T16:08:57.137Z,27.10
2018-09-22T16:11:27.026Z,27.05
2018-09-22T16:13:56.860Z,26.97
2018-09-22T16:16:26.353Z,26.88
2018-09-22T16:18:55.583Z,26.72
2018-09-22T16:21:24.933Z,26.72
2018-09-22T16:23:54.809Z,26.53
2018-09-22T16:26:24.553Z,26.61
2018-09-22T16:28:54.170Z,26.43
2018-09-22T16:31:23.990Z,26.43
2018-09-22T16:33:53.525Z,26.34
2018-09-22T16:36:23.044Z,26.29
2018-09-22T16:38:52.630Z,26.22
2018-09-22T16:41:22.219Z,25.85
2018-09-22T16:43:52.040Z,25.58
2018-09-22T16:46:21.653Z,25.40
2018-09-22T16:48:51.227Z,25.05
2018-09-22T16:51:21.228Z,25.39
2018-09-22T16:53:51.195Z,25.54
2018-09-22T16:56:21.123Z,25.59
2018-09-22T16:58:50.994Z,25.66
2018-09-22T17:01:20.878Z,25.79
2018-09-22T17:03:50.318Z,25.61
2018-09-22T17:06:19.666Z,25.59
2018-09-22T17:08:49.654Z,25.54
2018-09-22T17:11:19.532Z,25.44
2018-09-22T17:13:48.962Z,25.40
2018-09-22T17:16:18.416Z,25.41
2018-09-22T17:18:47.904Z,25.05
2018-09-22T17:21:17.375Z,25.05
2018-09-22T17:23:47.212Z,24.98
2018-09-22T17:26:16.689Z,24.61
2018-09-22T17:28:46.338Z,24.28
2018-09-22T17:31:16.141Z,23.85
2018-09-22T17:33:45.623Z,23.51
2018-09-22T17:36:15.454Z,23.43
2018-09-22T17:38:45.085Z,23.36
2018-09-22T17:41:14.729Z,22.95
2018-09-22T17:43:44.672Z,22.59
2018-09-22T17:46:14.405Z,22.43
2018-09-22T17:48:44.193Z,22.50
2018-09-22T17:51:13.705Z,22.68
2018-09-22T17:53:43.498Z,22.93
2018-09-22T17:56:12.974Z,23.08
2018-09-22T17:58:42.577Z,23.07
2018-09-22T18:01:12.858Z,23.09
2018-09-22T18:03:42.402Z,23.03
2018-09-22T18:06:12.165Z,23.10
2018-09-22T18:08:42.094Z,23.08
2018-09-22T18:11:11.890Z,22.99
2018-09-22T18:13:41.907Z,22.92
2018-09-22T18:16:11.382Z,22.92
2018-09-22T18:18:40.862Z,22.78
2018-09-22T18:21:10.467Z,22.66
2018-09-22T18:23:39.990Z,22.57
2018-09-22T18:26:09.426Z,22.43
2018-09-22T18:28:38.757Z,22.34
2018-09-22T18:31:08.609Z,22.40
2018-09-22T18:33:38.483Z,22.28
2018-09-22T18:36:08.026Z,22.23
2018-09-22T18:38:37.933Z,22.23
2018-09-22T18:41:07.323Z,22.07
2018-09-22T18:43:36.811Z,21.97
2018-09-22T18:46:06.650Z,21.96
2018-09-22T18:48:37.769Z,21.77
2018-09-22T18:51:07.870Z,21.79
2018-09-22T18:53:37.490Z,21.71
2018-09-22T18:56:06.997Z,21.66
2018-09-22T18:58:36.364Z,21.54
2018-09-22T19:01:05.906Z,21.55
2018-09-22T19:03:35.417Z,21.64
2018-09-22T19:06:05.036Z,21.51
2018-09-22T19:08:34.384Z,21.56
2018-09-22T19:11:03.880Z,21.46
2018-09-22T19:13:39.043Z,21.47
2018-09-22T19:16:16.009Z,21.19
2018-09-22T19:18:56.121Z,21.04
2018-09-22T19:21:35.906Z,20.96
2018-09-22T19:24:09.448Z,20.92
2018-09-22T19:26:42.920Z,20.82
2018-09-22T19:29:18.018Z,20.72
2018-09-22T19:31:52.313Z,20.70
2018-09-22T19:34:26.535Z,20.79
2018-09-22T19:37:05.887Z,20.76
2018-09-22T19:39:43.947Z,20.77
2018-09-22T19:42:18.173Z,20.83
2018-09-22T19:44:59.089Z,20.70
2018-09-22T19:47:35.190Z,20.61
2018-09-22T19:50:08.427Z,20.79
2018-09-22T19:52:41.812Z,20.75
2018-09-22T19:55:12.141Z,20.66
2018-09-22T19:57:41.589Z,20.38
2018-09-22T20:00:11.520Z,20.31
2018-09-22T20:02:41.904Z,20.20
2018-09-22T20:05:11.780Z,20.12
2018-09-22T20:07:41.398Z,20.27
2018-09-22T20:10:11.564Z,20.32
2018-09-22T20:12:41.239Z,20.38
2018-09-22T20:15:10.857Z,20.49
2018-09-22T20:17:40.440Z,20.33
2018-09-22T20:20:10.287Z,20.42
2018-09-22T20:22:39.794Z,20.40
2018-09-22T20:25:09.737Z,20.34
2018-09-22T20:27:39.289Z,20.36
2018-09-22T20:30:09.261Z,19.95
2018-09-22T20:32:39.052Z,19.61
2018-09-22T20:35:08.879Z,19.48
2018-09-22T20:37:38.454Z,19.40
2018-09-22T20:40:08.504Z,19.33
2018-09-22T20:42:38.363Z,19.45
2018-09-22T20:45:07.935Z,19.54
2018-09-22T21:04:59.676Z,19.73
2018-09-22T21:07:29.072Z,19.72
2018-09-22T21:27:21.472Z,19.00
2018-09-22T21:29:51.219Z,18.93
2018-09-22T21:32:20.829Z,19.07
2018-09-22T21:34:50.671Z,19.12
2018-09-22T21:37:20.334Z,19.17
2018-09-22T21:39:50.055Z,19.33
2018-09-22T21:42:20.271Z,19.19
2018-09-22T21:44:50.092Z,19.22
2018-09-22T21:47:19.697Z,19.37
2018-09-22T22:12:58.420Z,18.37
2018-09-22T22:15:28.369Z,18.33
2018-09-22T22:17:58.108Z,18.41
2018-09-22T22:20:28.180Z,18.32
2018-09-22T22:22:58.142Z,18.34
2018-09-22T22:25:28.020Z,18.50
2018-09-22T22:27:58.301Z,18.62
2018-09-22T22:30:28.191Z,18.62
2018-09-22T22:32:58.098Z,18.63
2018-09-22T22:35:28.240Z,18.17
2018-09-22T22:37:58.167Z,17.95
2018-09-22T22:40:27.650Z,17.87
2018-09-22T22:42:57.670Z,17.67
2018-09-22T22:45:27.460Z,17.52
2018-09-22T22:47:56.936Z,17.46
2018-09-22T22:50:26.668Z,17.40
2018-09-22T22:52:56.617Z,17.41
2018-09-22T22:55:26.123Z,17.66
2018-09-22T22:57:55.880Z,17.81
2018-09-22T23:00:25.199Z,17.78
2018-09-22T23:02:54.851Z,17.80
2018-09-22T23:05:25.082Z,17.82
2018-09-22T23:07:54.481Z,17.89
2018-09-22T23:10:23.940Z,17.77
2018-09-22T23:12:53.718Z,17.74
2018-09-22T23:15:23.041Z,17.80
2018-09-22T23:17:52.728Z,17.78
2018-09-22T23:20:22.682Z,17.87
2018-09-22T23:22:52.687Z,17.97
2018-09-22T23:25:22.251Z,18.06
2018-09-22T23:27:51.916Z,18.12
2018-09-22T23:30:21.321Z,18.18
2018-09-22T23:32:51.153Z,18.22
2018-09-22T23:35:21.215Z,18.26
2018-09-22T23:37:50.742Z,18.27
2018-09-22T23:40:20.626Z,18.27
2018-09-22T23:42:50.345Z,18.36
2018-09-22T23:45:19.933Z,18.38
